sensor_id;sensor_type;location;lat;lon;timestamp;P1;durP1;ratioP1;P2;durP2;ratioP2
21804;SDS011;11064;47.102;15.452;2023-02-07T05:02:46;23.90;;;12.23;;
21804;SDS011;11064;47.102;15.452;2023-02-07T05:05:12;25.08;;;12.25;;
21804;SDS011;11064;47.102;15.452;2023-02-07T05:07:37;26.27;;;12.88;;
21804;SDS011;11064;47.102;15.452;2023-02-07T05:10:03;26.73;;;13.20;;
21804;SDS011;11064;47.102;15.452;2023-02-07T05:12:30;26.15;;;13.10;;
21804;SDS011;11064;47.102;15.452;2023-02-07T05:14:55;25.35;;;12.48;;
21804;SDS011;11064;47.102;15.452;2023-02-07T05:17:21;25.20;;;12.07;;
21804;SDS011;11064;47.102;15.452;2023-02-07T05:19:47;26.85;;;12.52;;
21804;SDS011;11064;47.102;15.452;2023-02-07T05:22:13;23.90;;;12.00;;
21804;SDS011;11064;47.102;15.452;2023-02-07T05:24:39;27.33;;;11.98;;
21804;SDS011;11064;47.102;15.452;2023-02-07T05:27:04;23.77;;;12.82;;
21804;SDS011;11064;47.102;15.452;2023-02-07T05:29:30;21.30;;;11.27;;
21804;SDS011;11064;47.102;15.452;2023-02-07T05:31:56;24.10;;;12.50;;
21804;SDS011;11064;47.102;15.452;2023-02-07T05:34:40;25.02;;;11.30;;
21804;SDS011;11064;47.102;15.452;2023-02-07T05:37:06;23.10;;;11.90;;
21804;SDS011;11064;47.102;15.452;2023-02-07T05:39:32;21.42;;;12.30;;
21804;SDS011;11064;47.102;15.452;2023-02-07T05:41:58;23.45;;;12.00;;
21804;SDS011;11064;47.102;15.452;2023-02-07T05:44:23;24.88;;;12.15;;
21804;SDS011;11064;47.102;15.452;2023-02-07T05:46:49;23.58;;;12.02;;
21804;SDS011;11064;47.102;15.452;2023-02-07T05:49:15;23.98;;;11.98;;
21804;SDS011;11064;47.102;15.452;2023-02-07T05:51:41;23.95;;;12.48;;
21804;SDS011;11064;47.102;15.452;2023-02-07T05:54:07;24.98;;;11.95;;
21804;SDS011;11064;47.102;15.452;2023-02-07T05:56:32;21.45;;;11.15;;
21804;SDS011;11064;47.102;15.452;2023-02-07T05:58:58;21.23;;;10.57;;
21804;SDS011;11064;47.102;15.452;2023-02-07T06:01:24;26.83;;;12.45;;
21804;SDS011;11064;47.102;15.452;2023-02-07T06:03:50;22.45;;;11.27;;
21804;SDS011;11064;47.102;15.452;2023-02-07T06:06:16;22.77;;;11.57;;
21804;SDS011;11064;47.102;15.452;2023-02-07T06:08:41;21.38;;;11.18;;
21804;SDS011;11064;47.102;15.452;2023-02-07T06:11:07;20.85;;;10.27;;
21804;SDS011;11064;47.102;15.452;2023-02-07T06:13:33;21.75;;;11.07;;
21804;SDS011;11064;47.102;15.452;2023-02-07T06:15:59;21.08;;;10.40;;
21804;SDS011;11064;47.102;15.452;2023-02-07T06:18:25;18.50;;;9.80;;
21804;SDS011;11064;47.102;15.452;2023-02-07T06:20:51;20.45;;;9.93;;
21804;SDS011;11064;47.102;15.452;2023-02-07T06:23:16;19.80;;;9.85;;
21804;SDS011;11064;47.102;15.452;2023-02-07T06:25:44;21.58;;;10.93;;
21804;SDS011;11064;47.102;15.452;2023-02-07T06:28:10;18.45;;;9.48;;
21804;SDS011;11064;47.102;15.452;2023-02-07T06:30:36;17.45;;;9.25;;
21804;SDS011;11064;47.102;15.452;2023-02-07T06:33:02;20.60;;;9.57;;
21804;SDS011;11064;47.102;15.452;2023-02-07T06:35:28;20.40;;;10.20;;
21804;SDS011;11064;47.102;15.452;2023-02-07T06:37:54;21.85;;;10.50;;
21804;SDS011;11064;47.102;15.452;2023-02-07T06:40:19;20.40;;;9.65;;
21804;SDS011;11064;47.102;15.452;2023-02-07T06:42:45;19.58;;;9.73;;
21804;SDS011;11064;47.102;15.452;2023-02-07T06:45:11;19.83;;;10.00;;
21804;SDS011;11064;47.102;15.452;2023-02-07T06:47:37;19.33;;;9.20;;
21804;SDS011;11064;47.102;15.452;2023-02-07T06:50:03;17.88;;;8.73;;
21804;SDS011;11064;47.102;15.452;2023-02-07T06:52:29;17.25;;;8.95;;
21804;SDS011;11064;47.102;15.452;2023-02-07T06:54:55;18.33;;;8.77;;
21804;SDS011;11064;47.102;15.452;2023-02-07T06:57:20;16.77;;;9.15;;
21804;SDS011;11064;47.102;15.452;2023-02-07T06:59:46;18.00;;;8.63;;
21804;SDS011;11064;47.102;15.452;2023-02-07T07:02:12;18.30;;;9.10;;
21804;SDS011;11064;47.102;15.452;2023-02-07T07:04:38;21.25;;;9.45;;
21804;SDS011;11064;47.102;15.452;2023-02-07T07:07:05;17.50;;;8.93;;
21804;SDS011;11064;47.102;15.452;2023-02-07T07:09:31;17.98;;;9.35;;
21804;SDS011;11064;47.102;15.452;2023-02-07T07:11:56;18.48;;;8.88;;
21804;SDS011;11064;47.102;15.452;2023-02-07T07:14:22;15.70;;;8.77;;
21804;SDS011;11064;47.102;15.452;2023-02-07T07:16:48;19.67;;;9.23;;
21804;SDS011;11064;47.102;15.452;2023-02-07T07:19:14;15.57;;;8.55;;
21804;SDS011;11064;47.102;15.452;2023-02-07T07:21:40;16.63;;;8.25;;
21804;SDS011;11064;47.102;15.452;2023-02-07T07:24:06;17.48;;;8.95;;
21804;SDS011;11064;47.102;15.452;2023-02-07T07:26:32;19.27;;;9.20;;
21804;SDS011;11064;47.102;15.452;2023-02-07T07:28:58;19.23;;;9.23;;
21804;SDS011;11064;47.102;15.452;2023-02-07T07:31:24;18.92;;;9.18;;
21804;SDS011;11064;47.102;15.452;2023-02-07T07:33:54;19.02;;;9.48;;
21804;SDS011;11064;47.102;15.452;2023-02-07T07:36:20;19.60;;;8.85;;
21804;SDS011;11064;47.102;15.452;2023-02-07T07:38:46;19.73;;;8.82;;
21804;SDS011;11064;47.102;15.452;2023-02-07T07:41:12;20.63;;;9.85;;
21804;SDS011;11064;47.102;15.452;2023-02-07T07:43:38;19.88;;;9.02;;
21804;SDS011;11064;47.102;15.452;2023-02-07T07:46:03;18.48;;;9.27;;
21804;SDS011;11064;47.102;15.452;2023-02-07T07:48:31;22.17;;;9.50;;
21804;SDS011;11064;47.102;15.452;2023-02-07T07:50:57;19.90;;;8.85;;
21804;SDS011;11064;47.102;15.452;2023-02-07T07:53:23;19.13;;;9.45;;
21804;SDS011;11064;47.102;15.452;2023-02-07T07:55:53;18.45;;;8.95;;
21804;SDS011;11064;47.102;15.452;2023-02-07T07:58:20;18.73;;;8.88;;
21804;SDS011;11064;47.102;15.452;2023-02-07T08:00:47;21.58;;;10.13;;
21804;SDS011;11064;47.102;15.452;2023-02-07T08:03:14;22.77;;;9.20;;
21804;SDS011;11064;47.102;15.452;2023-02-07T08:05:41;19.58;;;9.38;;
21804;SDS011;11064;47.102;15.452;2023-02-07T08:08:08;18.88;;;9.65;;
21804;SDS011;11064;47.102;15.452;2023-02-07T08:10:34;16.83;;;8.85;;
21804;SDS011;11064;47.102;15.452;2023-02-07T08:13:00;17.88;;;9.80;;
21804;SDS011;11064;47.102;15.452;2023-02-07T08:15:26;17.40;;;9.48;;
21804;SDS011;11064;47.102;15.452;2023-02-07T08:17:51;21.65;;;10.20;;
21804;SDS011;11064;47.102;15.452;2023-02-07T08:20:17;17.67;;;9.48;;
21804;SDS011;11064;47.102;15.452;2023-02-07T08:22:43;17.92;;;9.45;;
21804;SDS011;11064;47.102;15.452;2023-02-07T08:25:09;19.48;;;10.07;;
21804;SDS011;11064;47.102;15.452;2023-02-07T08:27:35;19.98;;;10.00;;
21804;SDS011;11064;47.102;15.452;2023-02-07T08:30:02;21.42;;;9.95;;
21804;SDS011;11064;47.102;15.452;2023-02-07T08:32:30;20.70;;;10.48;;
21804;SDS011;11064;47.102;15.452;2023-02-07T08:34:55;21.98;;;9.85;;
21804;SDS011;11064;47.102;15.452;2023-02-07T08:37:21;23.83;;;10.50;;
21804;SDS011;11064;47.102;15.452;2023-02-07T08:39:47;21.60;;;10.35;;
21804;SDS011;11064;47.102;15.452;2023-02-07T08:42:17;21.98;;;10.40;;
21804;SDS011;11064;47.102;15.452;2023-02-07T08:44:47;24.80;;;11.30;;
21804;SDS011;11064;47.102;15.452;2023-02-07T08:47:14;18.73;;;10.43;;
21804;SDS011;11064;47.102;15.452;2023-02-07T08:49:41;22.80;;;10.73;;
21804;SDS011;11064;47.102;15.452;2023-02-07T08:52:08;23.00;;;11.63;;
21804;SDS011;11064;47.102;15.452;2023-02-07T08:54:34;20.25;;;10.25;;
21804;SDS011;11064;47.102;15.452;2023-02-07T08:57:01;19.85;;;10.25;;
21804;SDS011;11064;47.102;15.452;2023-02-07T08:59:27;20.63;;;10.43;;
21804;SDS011;11064;47.102;15.452;2023-02-07T09:01:53;20.75;;;11.10;;
21804;SDS011;11064;47.102;15.452;2023-02-07T09:04:19;21.90;;;11.77;;
21804;SDS011;11064;47.102;15.452;2023-02-07T09:06:44;21.45;;;10.38;;
21804;SDS011;11064;47.102;15.452;2023-02-07T09:09:11;23.42;;;11.35;;
21804;SDS011;11064;47.102;15.452;2023-02-07T09:11:37;25.77;;;11.52;;
21804;SDS011;11064;47.102;15.452;2023-02-07T09:14:03;23.38;;;11.25;;
21804;SDS011;11064;47.102;15.452;2023-02-07T09:16:29;23.48;;;11.52;;
21804;SDS011;11064;47.102;15.452;2023-02-07T09:18:55;21.65;;;11.73;;
21804;SDS011;11064;47.102;15.452;2023-02-07T09:21:21;24.45;;;11.82;;
21804;SDS011;11064;47.102;15.452;2023-02-07T09:23:47;26.58;;;11.90;;
21804;SDS011;11064;47.102;15.452;2023-02-07T09:26:17;23.80;;;11.80;;
21804;SDS011;11064;47.102;15.452;2023-02-07T09:28:45;23.80;;;12.35;;
21804;SDS011;11064;47.102;15.452;2023-02-07T09:31:12;23.25;;;12.18;;
21804;SDS011;11064;47.102;15.452;2023-02-07T09:33:39;20.35;;;11.13;;
21804;SDS011;11064;47.102;15.452;2023-02-07T09:36:14;25.20;;;12.32;;
21804;SDS011;11064;47.102;15.452;2023-02-07T09:38:42;20.13;;;10.60;;
21804;SDS011;11064;47.102;15.452;2023-02-07T09:41:18;19.52;;;10.55;;
21804;SDS011;11064;47.102;15.452;2023-02-07T09:44:41;20.85;;;10.32;;
21804;SDS011;11064;47.102;15.452;2023-02-07T09:46:43;20.25;;;10.70;;
21804;SDS011;11064;47.102;15.452;2023-02-07T09:49:28;18.35;;;10.07;;
21804;SDS011;11064;47.102;15.452;2023-02-07T09:51:57;18.55;;;9.50;;
21804;SDS011;11064;47.102;15.452;2023-02-07T09:54:29;20.10;;;9.88;;
21804;SDS011;11064;47.102;15.452;2023-02-07T09:57:07;19.33;;;9.18;;
21804;SDS011;11064;47.102;15.452;2023-02-07T10:02:17;16.25;;;9.25;;
21804;SDS011;11064;47.102;15.452;2023-02-07T10:05:18;20.23;;;8.90;;
21804;SDS011;11064;47.102;15.452;2023-02-07T10:07:47;18.13;;;9.10;;
21804;SDS011;11064;47.102;15.452;2023-02-07T10:10:18;21.15;;;9.88;;
21804;SDS011;11064;47.102;15.452;2023-02-07T10:15:30;18.60;;;9.63;;
21804;SDS011;11064;47.102;15.452;2023-02-07T10:21:28;18.80;;;10.27;;
21804;SDS011;11064;47.102;15.452;2023-02-07T10:26:44;17.88;;;9.98;;
21804;SDS011;11064;47.102;15.452;2023-02-07T10:29:29;17.85;;;9.30;;
21804;SDS011;11064;47.102;15.452;2023-02-07T10:34:47;19.23;;;10.85;;
21804;SDS011;11064;47.102;15.452;2023-02-07T10:37:20;18.77;;;9.90;;
21804;SDS011;11064;47.102;15.452;2023-02-07T10:39:50;20.25;;;10.00;;
21804;SDS011;11064;47.102;15.452;2023-02-07T10:42:22;21.02;;;10.60;;
21804;SDS011;11064;47.102;15.452;2023-02-07T10:44:48;20.08;;;11.10;;
21804;SDS011;11064;47.102;15.452;2023-02-07T10:47:15;22.05;;;10.93;;
21804;SDS011;11064;47.102;15.452;2023-02-07T10:49:43;21.77;;;11.70;;
21804;SDS011;11064;47.102;15.452;2023-02-07T10:54:49;21.10;;;12.05;;
21804;SDS011;11064;47.102;15.452;2023-02-07T10:57:19;21.35;;;11.43;;
21804;SDS011;11064;47.102;15.452;2023-02-07T10:59:46;25.40;;;11.07;;
21804;SDS011;11064;47.102;15.452;2023-02-07T11:02:56;21.20;;;10.40;;
21804;SDS011;11064;47.102;15.452;2023-02-07T11:07:39;19.40;;;11.32;;
21804;SDS011;11064;47.102;15.452;2023-02-07T11:10:14;21.45;;;11.80;;
21804;SDS011;11064;47.102;15.452;2023-02-07T11:12:47;24.67;;;11.85;;
21804;SDS011;11064;47.102;15.452;2023-02-07T11:15:15;24.70;;;12.50;;
21804;SDS011;11064;47.102;15.452;2023-02-07T11:17:47;25.00;;;11.68;;
21804;SDS011;11064;47.102;15.452;2023-02-07T11:20:26;25.35;;;12.65;;
21804;SDS011;11064;47.102;15.452;2023-02-07T11:22:58;22.95;;;11.52;;
21804;SDS011;11064;47.102;15.452;2023-02-07T11:25:28;23.75;;;11.23;;
21804;SDS011;11064;47.102;15.452;2023-02-07T11:28:17;20.05;;;11.13;;
21804;SDS011;11064;47.102;15.452;2023-02-07T11:31:01;20.13;;;11.38;;
21804;SDS011;11064;47.102;15.452;2023-02-07T11:33:31;21.48;;;11.15;;
21804;SDS011;11064;47.102;15.452;2023-02-07T11:36:42;25.65;;;12.07;;
21804;SDS011;11064;47.102;15.452;2023-02-07T11:38:58;20.63;;;11.07;;
21804;SDS011;11064;47.102;15.452;2023-02-07T11:41:28;21.23;;;12.45;;
21804;SDS011;11064;47.102;15.452;2023-02-07T11:43:57;19.35;;;11.43;;
21804;SDS011;11064;47.102;15.452;2023-02-07T11:46:45;20.48;;;10.77;;
21804;SDS011;11064;47.102;15.452;2023-02-07T11:49:26;20.25;;;10.98;;
21804;SDS011;11064;47.102;15.452;2023-02-07T11:52:02;21.67;;;11.70;;
21804;SDS011;11064;47.102;15.452;2023-02-07T11:54:29;20.02;;;11.25;;
21804;SDS011;11064;47.102;15.452;2023-02-07T11:57:00;19.80;;;11.07;;
21804;SDS011;11064;47.102;15.452;2023-02-07T11:59:32;22.98;;;10.82;;
21804;SDS011;11064;47.102;15.452;2023-02-07T12:04:51;18.25;;;10.45;;
21804;SDS011;11064;47.102;15.452;2023-02-07T12:07:25;17.15;;;10.05;;
21804;SDS011;11064;47.102;15.452;2023-02-07T12:09:59;21.83;;;10.83;;
21804;SDS011;11064;47.102;15.452;2023-02-07T12:15:07;19.23;;;10.88;;
21804;SDS011;11064;47.102;15.452;2023-02-07T12:20:24;19.70;;;10.18;;
21804;SDS011;11064;47.102;15.452;2023-02-07T12:25:33;22.45;;;10.68;;
21804;SDS011;11064;47.102;15.452;2023-02-07T12:28:05;19.45;;;10.55;;
21804;SDS011;11064;47.102;15.452;2023-02-07T12:30:58;19.67;;;10.93;;
21804;SDS011;11064;47.102;15.452;2023-02-07T12:33:30;22.25;;;10.95;;
21804;SDS011;11064;47.102;15.452;2023-02-07T12:36:11;18.13;;;10.20;;
21804;SDS011;11064;47.102;15.452;2023-02-07T12:38:51;19.02;;;10.43;;
21804;SDS011;11064;47.102;15.452;2023-02-07T12:41:24;18.63;;;10.10;;
21804;SDS011;11064;47.102;15.452;2023-02-07T12:46:56;21.25;;;9.45;;
21804;SDS011;11064;47.102;15.452;2023-02-07T12:49:50;18.17;;;10.30;;
21804;SDS011;11064;47.102;15.452;2023-02-07T12:52:27;20.23;;;10.70;;
21804;SDS011;11064;47.102;15.452;2023-02-07T13:01:04;19.13;;;9.82;;
21804;SDS011;11064;47.102;15.452;2023-02-07T13:06:26;17.02;;;9.73;;
21804;SDS011;11064;47.102;15.452;2023-02-07T13:11:49;18.10;;;9.95;;
21804;SDS011;11064;47.102;15.452;2023-02-07T13:24:46;17.73;;;9.52;;
21804;SDS011;11064;47.102;15.452;2023-02-07T13:27:15;20.13;;;10.00;;
21804;SDS011;11064;47.102;15.452;2023-02-07T13:29:45;17.05;;;10.15;;
21804;SDS011;11064;47.102;15.452;2023-02-07T13:32:15;19.25;;;9.98;;
21804;SDS011;11064;47.102;15.452;2023-02-07T13:34:49;21.50;;;9.80;;
21804;SDS011;11064;47.102;15.452;2023-02-07T13:37:32;18.50;;;10.35;;
21804;SDS011;11064;47.102;15.452;2023-02-07T13:40:16;20.55;;;9.98;;
21804;SDS011;11064;47.102;15.452;2023-02-07T13:50:55;18.75;;;8.73;;
21804;SDS011;11064;47.102;15.452;2023-02-07T13:53:50;16.55;;;9.00;;
21804;SDS011;11064;47.102;15.452;2023-02-07T13:56:37;17.67;;;9.70;;
21804;SDS011;11064;47.102;15.452;2023-02-07T13:59:39;16.80;;;9.32;;
21804;SDS011;11064;47.102;15.452;2023-02-07T14:02:24;15.60;;;9.35;;
21804;SDS011;11064;47.102;15.452;2023-02-07T14:04:52;15.73;;;8.68;;
21804;SDS011;11064;47.102;15.452;2023-02-07T14:07:23;18.48;;;9.85;;
21804;SDS011;11064;47.102;15.452;2023-02-07T14:09:54;16.10;;;8.90;;
21804;SDS011;11064;47.102;15.452;2023-02-07T14:14:54;19.02;;;9.18;;
21804;SDS011;11064;47.102;15.452;2023-02-07T14:19:53;20.05;;;9.75;;
21804;SDS011;11064;47.102;15.452;2023-02-07T14:27:35;15.77;;;9.20;;
21804;SDS011;11064;47.102;15.452;2023-02-07T14:32:44;18.80;;;9.95;;
21804;SDS011;11064;47.102;15.452;2023-02-07T14:35:35;17.25;;;8.80;;
21804;SDS011;11064;47.102;15.452;2023-02-07T14:40:47;16.45;;;9.35;;
21804;SDS011;11064;47.102;15.452;2023-02-07T14:43:25;16.55;;;9.05;;
21804;SDS011;11064;47.102;15.452;2023-02-07T14:46:07;15.18;;;8.65;;
21804;SDS011;11064;47.102;15.452;2023-02-07T14:48:49;16.33;;;9.05;;
21804;SDS011;11064;47.102;15.452;2023-02-07T14:51:45;16.38;;;8.88;;
21804;SDS011;11064;47.102;15.452;2023-02-07T14:57:01;17.20;;;9.00;;
21804;SDS011;11064;47.102;15.452;2023-02-07T14:59:53;18.13;;;9.77;;
21804;SDS011;11064;47.102;15.452;2023-02-07T15:02:33;16.77;;;9.00;;
21804;SDS011;11064;47.102;15.452;2023-02-07T15:05:46;16.88;;;8.93;;
21804;SDS011;11064;47.102;15.452;2023-02-07T15:13:20;15.38;;;8.52;;
21804;SDS011;11064;47.102;15.452;2023-02-07T15:18:41;18.15;;;9.57;;
21804;SDS011;11064;47.102;15.452;2023-02-07T15:21:26;15.45;;;9.30;;
21804;SDS011;11064;47.102;15.452;2023-02-07T15:24:14;19.13;;;9.60;;
21804;SDS011;11064;47.102;15.452;2023-02-07T15:26:48;18.08;;;9.27;;
21804;SDS011;11064;47.102;15.452;2023-02-07T15:29:18;18.00;;;9.77;;
21804;SDS011;11064;47.102;15.452;2023-02-07T15:31:46;20.13;;;9.75;;
21804;SDS011;11064;47.102;15.452;2023-02-07T15:34:19;18.58;;;9.50;;
21804;SDS011;11064;47.102;15.452;2023-02-07T15:36:49;18.75;;;10.02;;
21804;SDS011;11064;47.102;15.452;2023-02-07T15:39:20;18.52;;;10.23;;
21804;SDS011;11064;47.102;15.452;2023-02-07T15:41:48;19.63;;;9.85;;
21804;SDS011;11064;47.102;15.452;2023-02-07T15:44:22;19.92;;;10.18;;
21804;SDS011;11064;47.102;15.452;2023-02-07T15:46:51;19.27;;;10.65;;
21804;SDS011;11064;47.102;15.452;2023-02-07T15:49:38;20.40;;;11.00;;
21804;SDS011;11064;47.102;15.452;2023-02-07T15:52:10;18.90;;;10.30;;
21804;SDS011;11064;47.102;15.452;2023-02-07T15:54:39;20.63;;;10.57;;
21804;SDS011;11064;47.102;15.452;2023-02-07T15:57:16;20.00;;;11.40;;
21804;SDS011;11064;47.102;15.452;2023-02-07T15:59:48;20.42;;;10.70;;
21804;SDS011;11064;47.102;15.452;2023-02-07T16:02:26;22.80;;;11.45;;
21804;SDS011;11064;47.102;15.452;2023-02-07T16:04:56;21.40;;;12.43;;
21804;SDS011;11064;47.102;15.452;2023-02-07T16:07:23;22.35;;;12.40;;
21804;SDS011;11064;47.102;15.452;2023-02-07T16:09:49;23.33;;;12.77;;
21804;SDS011;11064;47.102;15.452;2023-02-07T16:12:27;24.35;;;12.32;;
21804;SDS011;11064;47.102;15.452;2023-02-07T16:14:59;42.30;;;19.25;;
21804;SDS011;11064;47.102;15.452;2023-02-07T16:17:36;23.25;;;12.27;;
21804;SDS011;11064;47.102;15.452;2023-02-07T16:20:03;22.50;;;11.57;;
21804;SDS011;11064;47.102;15.452;2023-02-07T16:22:30;23.73;;;11.60;;
21804;SDS011;11064;47.102;15.452;2023-02-07T16:24:58;21.50;;;12.02;;
21804;SDS011;11064;47.102;15.452;2023-02-07T16:27:26;24.60;;;13.52;;
21804;SDS011;11064;47.102;15.452;2023-02-07T16:29:56;23.52;;;13.18;;
21804;SDS011;11064;47.102;15.452;2023-02-07T16:32:24;22.60;;;12.20;;
21804;SDS011;11064;47.102;15.452;2023-02-07T16:34:55;23.88;;;12.40;;
21804;SDS011;11064;47.102;15.452;2023-02-07T16:37:21;24.25;;;12.32;;
21804;SDS011;11064;47.102;15.452;2023-02-07T16:39:47;26.05;;;11.80;;
21804;SDS011;11064;47.102;15.452;2023-02-07T16:42:14;21.52;;;11.57;;
21804;SDS011;11064;47.102;15.452;2023-02-07T16:44:41;24.38;;;11.52;;
21804;SDS011;11064;47.102;15.452;2023-02-07T16:47:12;21.42;;;11.50;;
21804;SDS011;11064;47.102;15.452;2023-02-07T16:49:39;23.42;;;12.65;;
21804;SDS011;11064;47.102;15.452;2023-02-07T16:52:09;23.63;;;12.07;;
21804;SDS011;11064;47.102;15.452;2023-02-07T16:54:35;24.63;;;12.55;;
21804;SDS011;11064;47.102;15.452;2023-02-07T16:57:00;24.92;;;12.40;;
21804;SDS011;11064;47.102;15.452;2023-02-07T16:59:27;22.15;;;12.45;;
21804;SDS011;11064;47.102;15.452;2023-02-07T17:01:52;21.73;;;11.13;;
21804;SDS011;11064;47.102;15.452;2023-02-07T17:04:19;21.85;;;12.60;;
21804;SDS011;11064;47.102;15.452;2023-02-07T17:06:46;23.40;;;12.13;;
21804;SDS011;11064;47.102;15.452;2023-02-07T17:09:16;27.80;;;12.40;;
21804;SDS011;11064;47.102;15.452;2023-02-07T17:11:44;25.83;;;12.52;;
21804;SDS011;11064;47.102;15.452;2023-02-07T17:14:10;22.05;;;12.23;;
21804;SDS011;11064;47.102;15.452;2023-02-07T17:16:36;23.17;;;12.10;;
21804;SDS011;11064;47.102;15.452;2023-02-07T17:19:13;26.48;;;12.30;;
21804;SDS011;11064;47.102;15.452;2023-02-07T17:21:39;22.45;;;12.60;;
21804;SDS011;11064;47.102;15.452;2023-02-07T17:24:06;22.95;;;12.55;;
21804;SDS011;11064;47.102;15.452;2023-02-07T17:26:33;24.30;;;12.93;;
21804;SDS011;11064;47.102;15.452;2023-02-07T17:29:00;23.70;;;12.48;;
21804;SDS011;11064;47.102;15.452;2023-02-07T17:31:26;22.60;;;12.27;;
21804;SDS011;11064;47.102;15.452;2023-02-07T17:33:52;23.63;;;13.30;;
21804;SDS011;11064;47.102;15.452;2023-02-07T17:36:20;24.88;;;12.88;;
21804;SDS011;11064;47.102;15.452;2023-02-07T17:38:47;23.25;;;13.00;;
21804;SDS011;11064;47.102;15.452;2023-02-07T17:41:14;20.48;;;11.77;;
21804;SDS011;11064;47.102;15.452;2023-02-07T17:43:41;20.30;;;10.00;;
21804;SDS011;11064;47.102;15.452;2023-02-07T17:46:16;18.20;;;9.98;;
21804;SDS011;11064;47.102;15.452;2023-02-07T17:48:47;26.38;;;10.57;;
21804;SDS011;11064;47.102;15.452;2023-02-07T17:51:16;18.38;;;9.82;;
21804;SDS011;11064;47.102;15.452;2023-02-07T17:53:44;18.80;;;9.98;;
21804;SDS011;11064;47.102;15.452;2023-02-07T17:59:06;18.67;;;9.82;;
21804;SDS011;11064;47.102;15.452;2023-02-07T18:01:41;23.92;;;9.90;;
21804;SDS011;11064;47.102;15.452;2023-02-07T18:04:08;18.83;;;9.75;;
21804;SDS011;11064;47.102;15.452;2023-02-07T18:06:34;20.20;;;10.80;;
21804;SDS011;11064;47.102;15.452;2023-02-07T18:09:00;19.67;;;10.38;;
21804;SDS011;11064;47.102;15.452;2023-02-07T18:11:27;18.98;;;10.10;;
21804;SDS011;11064;47.102;15.452;2023-02-07T18:13:54;19.35;;;10.05;;
21804;SDS011;11064;47.102;15.452;2023-02-07T18:16:26;18.95;;;9.70;;
21804;SDS011;11064;47.102;15.452;2023-02-07T18:18:53;18.42;;;10.05;;
21804;SDS011;11064;47.102;15.452;2023-02-07T18:21:21;22.15;;;10.43;;
21804;SDS011;11064;47.102;15.452;2023-02-07T18:23:47;19.25;;;10.65;;
21804;SDS011;11064;47.102;15.452;2023-02-07T18:26:14;19.92;;;10.60;;
21804;SDS011;11064;47.102;15.452;2023-02-07T18:28:41;21.58;;;12.00;;
21804;SDS011;11064;47.102;15.452;2023-02-07T18:31:11;21.27;;;11.68;;
21804;SDS011;11064;47.102;15.452;2023-02-07T18:33:39;20.48;;;11.30;;
21804;SDS011;11064;47.102;15.452;2023-02-07T18:36:06;24.95;;;11.07;;
21804;SDS011;11064;47.102;15.452;2023-02-07T18:38:35;25.13;;;12.15;;
21804;SDS011;11064;47.102;15.452;2023-02-07T18:41:08;20.95;;;11.63;;
21804;SDS011;11064;47.102;15.452;2023-02-07T18:43:36;24.48;;;11.93;;
21804;SDS011;11064;47.102;15.452;2023-02-07T18:46:08;22.88;;;10.70;;
21804;SDS011;11064;47.102;15.452;2023-02-07T18:48:35;19.70;;;10.73;;
21804;SDS011;11064;47.102;15.452;2023-02-07T18:51:08;22.75;;;11.45;;
21804;SDS011;11064;47.102;15.452;2023-02-07T18:53:37;22.08;;;12.27;;
21804;SDS011;11064;47.102;15.452;2023-02-07T18:56:09;23.02;;;11.68;;
21804;SDS011;11064;47.102;15.452;2023-02-07T18:58:37;22.08;;;11.25;;
21804;SDS011;11064;47.102;15.452;2023-02-07T19:01:05;18.55;;;10.80;;
21804;SDS011;11064;47.102;15.452;2023-02-07T19:03:39;29.08;;;14.70;;
21804;SDS011;11064;47.102;15.452;2023-02-07T19:06:06;29.05;;;15.57;;
21804;SDS011;11064;47.102;15.452;2023-02-07T19:08:33;25.30;;;13.63;;
21804;SDS011;11064;47.102;15.452;2023-02-07T19:11:00;19.17;;;11.10;;
21804;SDS011;11064;47.102;15.452;2023-02-07T19:13:28;20.38;;;10.45;;
21804;SDS011;11064;47.102;15.452;2023-02-07T19:16:05;20.27;;;11.05;;
21804;SDS011;11064;47.102;15.452;2023-02-07T19:18:36;22.25;;;11.20;;
21804;SDS011;11064;47.102;15.452;2023-02-07T19:21:03;21.80;;;12.07;;
21804;SDS011;11064;47.102;15.452;2023-02-07T19:23:35;21.80;;;11.77;;
21804;SDS011;11064;47.102;15.452;2023-02-07T19:26:02;23.80;;;11.90;;
21804;SDS011;11064;47.102;15.452;2023-02-07T19:28:29;23.42;;;12.30;;
21804;SDS011;11064;47.102;15.452;2023-02-07T19:30:56;28.02;;;14.32;;
21804;SDS011;11064;47.102;15.452;2023-02-07T19:33:22;23.80;;;12.75;;
21804;SDS011;11064;47.102;15.452;2023-02-07T19:35:49;27.27;;;13.45;;
21804;SDS011;11064;47.102;15.452;2023-02-07T19:38:17;28.77;;;13.85;;
21804;SDS011;11064;47.102;15.452;2023-02-07T19:40:43;30.33;;;15.20;;
21804;SDS011;11064;47.102;15.452;2023-02-07T19:43:11;37.92;;;17.77;;
21804;SDS011;11064;47.102;15.452;2023-02-07T19:45:38;38.05;;;18.30;;
21804;SDS011;11064;47.102;15.452;2023-02-07T19:48:04;38.03;;;18.48;;
21804;SDS011;11064;47.102;15.452;2023-02-07T19:53:00;33.10;;;15.95;;
21804;SDS011;11064;47.102;15.452;2023-02-07T19:55:27;38.47;;;18.23;;
21804;SDS011;11064;47.102;15.452;2023-02-07T19:57:54;39.58;;;17.70;;
21804;SDS011;11064;47.102;15.452;2023-02-07T20:00:24;36.72;;;18.25;;
21804;SDS011;11064;47.102;15.452;2023-02-07T20:02:57;42.90;;;19.58;;
21804;SDS011;11064;47.102;15.452;2023-02-07T20:05:24;39.30;;;18.83;;
21804;SDS011;11064;47.102;15.452;2023-02-07T20:07:51;36.58;;;18.52;;
21804;SDS011;11064;47.102;15.452;2023-02-07T20:10:18;37.55;;;19.48;;
21804;SDS011;11064;47.102;15.452;2023-02-07T20:12:45;41.33;;;18.80;;
21804;SDS011;11064;47.102;15.452;2023-02-07T20:15:12;39.53;;;18.70;;
21804;SDS011;11064;47.102;15.452;2023-02-07T20:17:38;41.70;;;18.23;;
21804;SDS011;11064;47.102;15.452;2023-02-07T20:20:06;43.83;;;19.80;;
21804;SDS011;11064;47.102;15.452;2023-02-07T20:22:32;38.22;;;18.58;;
21804;SDS011;11064;47.102;15.452;2023-02-07T20:24:59;37.53;;;18.92;;
21804;SDS011;11064;47.102;15.452;2023-02-07T20:27:26;39.88;;;18.63;;
21804;SDS011;11064;47.102;15.452;2023-02-07T20:29:52;37.50;;;18.65;;
21804;SDS011;11064;47.102;15.452;2023-02-07T20:32:18;45.50;;;20.38;;
21804;SDS011;11064;47.102;15.452;2023-02-07T20:34:45;43.05;;;19.70;;
21804;SDS011;11064;47.102;15.452;2023-02-07T20:37:11;39.35;;;19.42;;
21804;SDS011;11064;47.102;15.452;2023-02-07T20:39:38;41.00;;;19.60;;
21804;SDS011;11064;47.102;15.452;2023-02-07T20:42:04;43.33;;;19.08;;
21804;SDS011;11064;47.102;15.452;2023-02-07T20:44:30;38.08;;;18.35;;
21804;SDS011;11064;47.102;15.452;2023-02-07T20:46:56;38.72;;;18.23;;
21804;SDS011;11064;47.102;15.452;2023-02-07T20:49:25;39.05;;;17.77;;
21804;SDS011;11064;47.102;15.452;2023-02-07T20:51:54;40.05;;;17.92;;
21804;SDS011;11064;47.102;15.452;2023-02-07T20:54:22;38.95;;;18.30;;
21804;SDS011;11064;47.102;15.452;2023-02-07T20:56:51;35.33;;;17.77;;
21804;SDS011;11064;47.102;15.452;2023-02-07T20:59:19;40.13;;;18.75;;
21804;SDS011;11064;47.102;15.452;2023-02-07T21:01:49;44.17;;;19.88;;
21804;SDS011;11064;47.102;15.452;2023-02-07T21:04:15;39.78;;;18.58;;
21804;SDS011;11064;47.102;15.452;2023-02-07T21:06:42;37.10;;;18.75;;